»·PEaware :: 7T-VNJ KBFL-KVCV

7T-VNJ :: KBFL-KVCV

FLIGHT INFORMATION

Flight Status: Arrived
Operator: Privately registered:
Algeria
More flights under this callsign
Pilot: Zakaria R. (17375)
Aircraft: CESSNA 172 SKYHAWK
(C172)
More flights by this aircraft type
Origin: KBFL Meadows
United States
Destination: KVCV Socal Logistics
United States
More flights between these airports :: More routes between these airports
Route: +MEADO3 PMD
File this flight plan on PilotEdge
Remarks: Sample flight plan
Altitude:
(Current/Filed)
11,000ft
Speed:
(Current/Filed)
120kts
Departed: 10-Dec-17 01:14 PM
Arrived: 10-Dec-17 02:39 PM
Distance/Time
Traveled:
97nm/1:25
Distance/Time
To Go:
Arrived

Flight Plot

Page will automatically refresh every two minutes.


Map Options




Map Legend


Flown Route
Filed Route
Departure Airport
Arrival Airport
Navaid (VOR, NDB)
Fix

Horizontal Profiles

Position Reports

Time Latitude Longitude Heading Altitude Ground
Speed
10-Dec-17 12:56 35.437595 -119.055125 139 501ft 0kts
10-Dec-17 12:57 35.437595 -119.055125 139 501ft 0kts
10-Dec-17 12:57 35.437595 -119.055125 139 501ft 0kts
10-Dec-17 12:58 35.437595 -119.055125 139 501ft 0kts
10-Dec-17 13:00 35.437595 -119.055125 139 501ft 0kts
10-Dec-17 13:00 35.437595 -119.055125 139 501ft 0kts
10-Dec-17 13:01 35.437595 -119.055125 139 501ft 0kts
10-Dec-17 13:02 35.437595 -119.055125 139 501ft 0kts
10-Dec-17 13:03 35.437595 -119.055125 139 501ft 0kts
10-Dec-17 13:04 35.437595 -119.055125 139 501ft 0kts
10-Dec-17 13:05 35.437595 -119.055125 139 501ft 0kts
10-Dec-17 13:06 35.437595 -119.055125 139 501ft 0kts
10-Dec-17 13:07 35.437595 -119.055125 139 501ft 0kts
10-Dec-17 13:08 35.437595 -119.055125 139 501ft 0kts
10-Dec-17 13:09 35.437595 -119.055125 139 501ft 0kts
10-Dec-17 13:10 35.436701 -119.055329 159 499ft 5kts
10-Dec-17 13:11 35.433440 -119.053466 137 493ft 27kts
10-Dec-17 13:12 35.429645 -119.048921 144 490ft 3kts
10-Dec-17 13:13 35.426391 -119.044894 132 482ft 16kts
10-Dec-17 13:14 35.424822 -119.046175 227 473ft 18kts
10-Dec-17 13:15 35.425829 -119.044504 338 480ft 4kts
10-Dec-17 13:16 35.425696 -119.044798 226 479ft 0kts
10-Dec-17 13:17 35.425693 -119.044801 226 479ft 0kts
10-Dec-17 13:18 35.425584 -119.044959 235 479ft 9kts
10-Dec-17 13:19 35.436085 -119.058922 317 759ft 87kts
10-Dec-17 13:20 35.456757 -119.081132 315 1293ft 109kts
10-Dec-17 13:21 35.478479 -119.107714 315 1896ft 110kts
10-Dec-17 13:22 35.500012 -119.134187 315 2496ft 109kts
10-Dec-17 13:23 35.521005 -119.160486 315 3095ft 107kts
10-Dec-17 13:24 35.540394 -119.187476 286 3692ft 107kts
10-Dec-17 13:25 35.519973 -119.196029 142 4293ft 107kts
10-Dec-17 13:26 35.495886 -119.174888 141 4892ft 106kts
10-Dec-17 13:27 35.471807 -119.154328 141 5492ft 104kts
10-Dec-17 13:28 35.448238 -119.134763 141 6085ft 102kts
10-Dec-17 13:29 35.424810 -119.115947 141 6684ft 99kts
10-Dec-17 13:30 35.401810 -119.098120 141 7283ft 96kts
10-Dec-17 13:31 35.379505 -119.081467 141 7880ft 93kts
10-Dec-17 13:32 35.357766 -119.065870 141 8480ft 88kts
10-Dec-17 13:33 35.339166 -119.048663 142 8970ft 84kts
10-Dec-17 13:34 35.319975 -119.032635 149 9408ft 82kts
10-Dec-17 13:35 35.300299 -119.017802 141 9796ft 83kts
10-Dec-17 13:36 35.281125 -119.001391 142 10171ft 85kts
10-Dec-17 13:37 35.262318 -118.987230 142 10660ft 76kts
10-Dec-17 13:38 35.243268 -118.974449 145 10970ft 88kts
10-Dec-17 13:39 35.221747 -118.956650 136 11069ft 102kts
10-Dec-17 13:40 35.197780 -118.936838 144 11053ft 106kts
10-Dec-17 13:41 35.171865 -118.919264 142 11050ft 106kts
10-Dec-17 13:42 35.145483 -118.902384 141 11041ft 107kts
10-Dec-17 13:43 35.118891 -118.885278 140 11027ft 108kts
10-Dec-17 13:44 35.103477 -118.855688 112 11012ft 104kts
10-Dec-17 13:45 35.090144 -118.824009 109 10987ft 105kts
10-Dec-17 13:46 35.082788 -118.789755 104 11011ft 103kts
10-Dec-17 13:47 35.074210 -118.757119 122 11070ft 104kts
10-Dec-17 13:48 35.055677 -118.729676 124 11128ft 105kts
10-Dec-17 13:49 35.035752 -118.702459 123 11084ft 110kts
10-Dec-17 13:50 35.018766 -118.673008 123 11052ft 109kts
10-Dec-17 13:51 34.999331 -118.644689 132 11022ft 110kts
10-Dec-17 13:52 34.981663 -118.616997 110 11052ft 103kts
10-Dec-17 13:53 34.963987 -118.588679 121 11065ft 104kts
10-Dec-17 13:54 34.947045 -118.560193 126 11088ft 104kts
10-Dec-17 13:55 34.929238 -118.532656 122 11109ft 103kts
10-Dec-17 13:56 34.912714 -118.504142 121 11125ft 103kts
10-Dec-17 13:57 34.894983 -118.475637 126 11061ft 104kts
10-Dec-17 13:58 34.877102 -118.448281 123 11058ft 104kts
10-Dec-17 13:59 34.860001 -118.419596 123 11066ft 104kts
10-Dec-17 14:00 34.842387 -118.391598 126 11077ft 105kts
10-Dec-17 14:01 34.824332 -118.363840 124 11093ft 104kts
10-Dec-17 14:02 34.806229 -118.336569 124 11074ft 106kts
10-Dec-17 14:03 34.787947 -118.308389 125 11101ft 105kts
10-Dec-17 14:04 34.770098 -118.279728 124 11096ft 106kts
10-Dec-17 14:05 34.760632 -118.246917 102 10970ft 99kts
10-Dec-17 14:06 34.755032 -118.216779 102 10471ft 87kts
10-Dec-17 14:07 34.749591 -118.189373 102 9907ft 78kts
10-Dec-17 14:08 34.744105 -118.163611 102 9315ft 83kts
10-Dec-17 14:10 34.737855 -118.135390 102 8720ft 89kts
10-Dec-17 14:11 34.731120 -118.106133 102 8122ft 91kts
10-Dec-17 14:12 34.723612 -118.073561 102 8035ft 104kts
10-Dec-17 14:13 34.715850 -118.039695 102 8033ft 105kts
10-Dec-17 14:14 34.708031 -118.005371 102 8031ft 105kts
10-Dec-17 14:15 34.700252 -117.971016 102 8029ft 105kts
10-Dec-17 14:16 34.692464 -117.936351 101 8028ft 110kts
10-Dec-17 14:17 34.684321 -117.899466 101 8025ft 114kts
10-Dec-17 14:18 34.676074 -117.861802 101 8024ft 118kts
10-Dec-17 14:19 34.667659 -117.823013 101 8023ft 119kts
10-Dec-17 14:20 34.659358 -117.783780 101 7986ft 120kts
10-Dec-17 14:21 34.651168 -117.744564 101 7985ft 119kts
10-Dec-17 14:22 34.642966 -117.705269 101 7985ft 119kts
10-Dec-17 14:23 34.634777 -117.666003 101 7983ft 120kts
10-Dec-17 14:24 34.626601 -117.626759 101 7982ft 120kts
10-Dec-17 14:25 34.618407 -117.587407 101 7977ft 120kts
10-Dec-17 14:26 34.610110 -117.548011 101 7960ft 121kts
10-Dec-17 14:27 34.605212 -117.509070 51 7939ft 118kts
10-Dec-17 14:28 34.630430 -117.517680 325 7342ft 100kts
10-Dec-17 14:29 34.652794 -117.539196 325 6642ft 115kts
10-Dec-17 14:30 34.679519 -117.563741 325 5939ft 123kts
10-Dec-17 14:31 34.710514 -117.575300 1 5233ft 120kts
10-Dec-17 14:32 34.743079 -117.573416 27 4978ft 113kts
10-Dec-17 14:33 34.758936 -117.541240 61 4981ft 111kts
10-Dec-17 14:34 34.772961 -117.507612 61 4981ft 111kts
10-Dec-17 14:35 34.786930 -117.474119 61 4981ft 111kts
10-Dec-17 14:36 34.800957 -117.440492 61 4981ft 111kts
10-Dec-17 14:37 34.804710 -117.406773 144 4978ft 116kts
10-Dec-17 14:38 34.775419 -117.395197 161 4979ft 98kts
10-Dec-17 14:39 34.750528 -117.389662 177 4980ft 87kts
10-Dec-17 14:40 34.725160 -117.389931 181 4707ft 97kts
10-Dec-17 14:41 34.697666 -117.389782 176 4179ft 96kts
10-Dec-17 14:42 34.672738 -117.388690 177 3703ft 89kts
10-Dec-17 14:43 34.649472 -117.387207 177 3418ft 72kts
10-Dec-17 14:44 34.629633 -117.386806 178 3000ft 68kts
10-Dec-17 14:45 34.613752 -117.386692 177 2821ft 17kts
10-Dec-17 14:46 34.610596 -117.385126 98 2827ft 0kts
10-Dec-17 14:47 34.610870 -117.384279 28 2827ft 11kts
10-Dec-17 14:48 34.614269 -117.384049 177 2823ft 9kts
10-Dec-17 14:49 34.608700 -117.384160 179 2831ft 18kts
10-Dec-17 14:50 34.602821 -117.384104 178 2839ft 25kts
10-Dec-17 14:51 34.596826 -117.384041 177 2851ft 10kts
10-Dec-17 14:52 34.594425 -117.383335 43 2856ft 6kts
10-Dec-17 14:53 34.594632 -117.383676 145 2856ft 0kts
10-Dec-17 14:54 34.594353 -117.383233 143 2856ft 0kts
10-Dec-17 14:55 34.590045 -117.378085 135 2868ft 15kts
10-Dec-17 14:56 34.592947 -117.372719 50 2861ft 24kts
10-Dec-17 14:57 34.592485 -117.368222 158 2858ft 0kts
10-Dec-17 14:58 34.591726 -117.367721 146 2858ft 17kts
10-Dec-17 14:59 34.591039 -117.367561 8 2859ft 0kts

Navigation Log

Ident Type
Flight plan parsing failed, navigation log unavailable